Time;durP1;ratioP1;P1;durP2;ratioP2;P2;SDS_P1;SDS_P2;PMS_P1;PMS_P2;Temp;Humidity;BMP_temperature;BMP_pressure;BME280_temperature;BME280_humidity;BME280_pressure;Samples;Min_cycle;Max_cycle;Signal;HPM_P1;HPM_P2
2021/03/28 00:03:46;;;;;;;9.47;3.93;;;;;;;2.85;69.85;99526.44;466805;1200;103220;-41
2021/03/28 00:13:52;;;;;;;6.57;3.57;;;;;;;2.76;69.56;99522.14;468077;1200;103258;-40
2021/03/28 00:24:15;;;;;;;5.43;2.73;;;;;;;2.70;70.36;99528.81;467471;1200;103622;-43
2021/03/28 00:34:21;;;;;;;7.87;3.10;;;;;;;2.65;70.61;99540.72;467081;1200;103702;-41
2021/03/28 00:44:26;;;;;;;9.87;3.70;;;;;;;2.67;70.33;99557.04;468140;1199;103333;-40
2021/03/28 00:54:40;;;;;;;6.03;3.20;;;;;;;2.65;70.57;99564.22;468101;1199;103513;-40
2021/03/28 01:05:13;;;;;;;4.60;2.45;;;;;;;2.72;70.38;99570.44;467309;1200;103657;-41
2021/03/28 01:15:52;;;;;;;17.15;4.95;;;;;;;2.83;70.31;99577.98;467245;1200;103188;-40
2021/03/28 01:26:25;;;;;;;15.60;5.40;;;;;;;2.91;70.02;99590.28;467899;1199;103223;-41
2021/03/28 01:36:30;;;;;;;9.90;3.95;;;;;;;2.93;70.17;99591.76;467290;1200;103526;-41
2021/03/28 01:46:42;;;;;;;9.03;4.23;;;;;;;3.01;69.81;99585.73;467736;1197;103336;-41
2021/03/28 01:56:46;;;;;;;6.10;3.10;;;;;;;3.15;69.88;99590.38;468098;1199;103235;-41
2021/03/28 02:07:07;;;;;;;7.53;4.23;;;;;;;3.34;70.19;99591.91;467905;1200;103248;-42
2021/03/28 02:17:18;;;;;;;8.83;4.50;;;;;;;3.21;69.98;99594.14;467804;1200;103219;-41
2021/03/28 02:27:22;;;;;;;8.97;5.67;;;;;;;3.34;70.28;99610.20;467755;1199;103211;-40
2021/03/28 02:37:27;;;;;;;14.20;5.70;;;;;;;3.26;69.76;99612.77;466758;1199;103530;-42
2021/03/28 02:48:15;;;;;;;8.17;4.67;;;;;;;3.08;69.38;99632.01;466584;1200;103223;-41
2021/03/28 02:58:34;;;;;;;10.40;5.00;;;;;;;2.90;69.79;99641.71;467438;1200;103514;-41
2021/03/28 03:19:13;;;;;;;5.70;3.80;;;;;;;2.34;70.26;99661.25;467167;1199;103402;-41
2021/03/28 03:29:43;;;;;;;9.38;4.03;;;;;;;2.27;70.49;99668.05;467778;1199;103344;-40
2021/03/28 03:40:19;;;;;;;11.63;5.47;;;;;;;2.30;70.53;99672.97;466819;1199;103300;-41
2021/03/28 03:50:23;;;;;;;14.10;5.55;;;;;;;2.15;70.06;99684.92;467209;1199;103217;-40
2021/03/28 04:00:31;;;;;;;9.85;4.70;;;;;;;2.04;70.92;99683.34;467941;1200;103214;-41
2021/03/28 04:10:37;;;;;;;12.00;5.60;;;;;;;2.03;70.66;99697.36;468107;1200;103253;-40
2021/03/28 04:20:43;;;;;;;12.07;5.57;;;;;;;2.11;70.81;99699.21;466877;1199;104498;-40
2021/03/28 04:31:00;;;;;;;10.80;6.10;;;;;;;1.99;71.09;99705.64;468039;1199;103185;-40
2021/03/28 04:41:38;;;;;;;8.73;5.53;;;;;;;1.92;70.81;99718.46;467062;1199;103221;-40
2021/03/28 04:52:10;;;;;;;9.00;5.65;;;;;;;2.03;71.20;99733.06;466980;1200;103620;-41
2021/03/28 05:02:25;;;;;;;15.70;7.05;;;;;;;2.10;71.38;99754.97;468091;1199;103216;-41
2021/03/28 05:12:48;;;;;;;11.60;6.53;;;;;;;2.41;71.42;99764.10;467293;1199;103242;-41
2021/03/28 05:23:11;;;;;;;12.10;6.93;;;;;;;2.70;71.53;99776.09;467616;1200;103577;-41
2021/03/28 05:33:39;;;;;;;15.80;8.60;;;;;;;4.04;71.27;99791.22;468070;1200;103210;-40
2021/03/28 05:44:16;;;;;;;13.07;7.30;;;;;;;4.86;70.09;99798.19;467051;1200;103238;-41
2021/03/28 05:54:56;;;;;;;12.40;5.77;;;;;;;5.57;69.34;99806.28;467695;1199;103274;-42
2021/03/28 06:05:32;;;;;;;12.10;8.20;;;;;;;6.42;69.27;99813.31;467681;1200;103562;-40
2021/03/28 06:15:43;;;;;;;14.30;7.75;;;;;;;6.82;67.88;99813.19;466744;1200;103676;-42
2021/03/28 06:26:15;;;;;;;16.55;8.90;;;;;;;7.44;67.23;99815.59;467713;1200;103230;-42
2021/03/28 06:36:51;;;;;;;11.90;6.90;;;;;;;7.93;66.11;99808.77;468041;1200;103238;-41
2021/03/28 06:47:27;;;;;;;12.60;6.90;;;;;;;8.67;64.55;99829.70;467314;1200;103219;-41
2021/03/28 06:58:08;;;;;;;13.70;7.10;;;;;;;8.78;64.35;99842.41;467483;1200;103587;-42
2021/03/28 07:08:20;;;;;;;13.93;6.33;;;;;;;9.20;63.33;99853.91;466819;1200;103603;-41
2021/03/28 07:18:59;;;;;;;10.50;7.07;;;;;;;8.41;62.42;99861.88;467898;1200;103246;-41
2021/03/28 07:29:40;;;;;;;12.90;8.50;;;;;;;8.50;62.67;99873.92;468373;1199;103213;-40
2021/03/28 07:40:09;;;;;;;11.63;8.20;;;;;;;8.38;61.81;99879.88;467502;1200;103245;-41
2021/03/28 07:50:39;;;;;;;11.20;8.57;;;;;;;8.31;61.54;99880.59;467749;1199;103257;-41
2021/03/28 08:01:10;;;;;;;14.20;8.80;;;;;;;8.49;61.18;99890.74;468068;1200;103510;-42
2021/03/28 08:11:24;;;;;;;14.40;8.70;;;;;;;9.50;61.11;99887.06;467008;1200;103254;-41
2021/03/28 08:21:31;;;;;;;20.50;10.13;;;;;;;8.73;58.90;99894.86;468092;1200;104263;-41
2021/03/28 08:31:38;;;;;;;116.87;53.23;;;;;;;8.49;60.01;99903.92;468091;1199;103610;-41
2021/03/28 08:42:13;;;;;;;15.10;9.80;;;;;;;8.24;60.26;99906.02;467161;1199;103220;-41
2021/03/28 08:52:49;;;;;;;16.90;7.70;;;;;;;7.79;60.31;99920.19;467763;1200;103235;-41
2021/03/28 09:03:26;;;;;;;17.20;7.95;;;;;;;7.99;60.86;99931.01;467270;1200;103524;-42
2021/03/28 09:13:40;;;;;;;32.23;14.33;;;;;;;8.20;60.06;99927.66;468672;1199;103545;-41
2021/03/28 09:23:53;;;;;;;19.70;11.77;;;;;;;9.41;59.61;99908.50;468200;1199;103533;-41
2021/03/28 09:34:13;;;;;;;18.23;7.60;;;;;;;9.17;56.69;99904.43;467936;1199;103232;-41
2021/03/28 09:44:17;;;;;;;14.30;6.63;;;;;;;9.56;57.09;99905.78;468868;1199;103136;-43
2021/03/28 09:54:25;;;;;;;9.30;5.75;;;;;;;9.49;56.03;99901.27;468306;1199;103584;-43
2021/03/28 10:04:59;;;;;;;9.00;5.00;;;;;;;9.67;55.48;99897.31;468525;1200;103584;-41
2021/03/28 10:15:03;;;;;;;10.50;4.00;;;;;;;9.69;53.48;99898.75;468606;1199;103542;-41
2021/03/28 10:25:30;;;;;;;12.73;4.40;;;;;;;10.17;51.99;99896.19;468129;1199;103222;-42
2021/03/28 10:35:54;;;;;;;15.70;7.10;;;;;;;11.04;51.79;99891.02;467988;1199;103226;-41
2021/03/28 10:46:10;;;;;;;8.50;5.23;;;;;;;11.26;51.21;99877.59;467564;1199;103222;-41
2021/03/28 10:56:49;;;;;;;17.05;8.50;;;;;;;11.58;51.23;99884.70;467484;1200;103257;-41
2021/03/28 11:07:13;;;;;;;14.05;7.90;;;;;;;10.95;50.26;99886.94;467956;1200;104962;-42
2021/03/28 11:17:36;;;;;;;7.50;3.50;;;;;;;11.23;50.44;99886.77;467607;1200;103371;-43
2021/03/28 11:28:08;;;;;;;10.60;5.20;;;;;;;11.14;47.79;99887.17;467513;1200;103223;-41
2021/03/28 11:39:00;;;;;;;9.23;4.10;;;;;;;12.04;50.09;99886.48;467005;1199;103225;-41
2021/03/28 11:49:06;;;;;;;16.13;5.47;;;;;;;12.24;48.89;99873.98;466679;1200;103229;-42
2021/03/28 11:59:12;;;;;;;6.37;4.17;;;;;;;12.20;48.47;99883.38;467266;1200;103635;-40
2021/03/28 12:19:47;;;;;;;75.03;36.70;;;;;;;11.05;48.42;99894.47;467179;1200;103223;-42
2021/03/28 12:29:53;;;;;;;17.07;8.70;;;;;;;10.56;48.15;99892.13;467876;1199;103204;-40
2021/03/28 12:39:59;;;;;;;21.05;12.45;;;;;;;10.39;48.12;99887.17;467120;1200;104733;-42
2021/03/28 12:50:24;;;;;;;13.60;5.35;;;;;;;10.86;48.57;99882.02;466740;1199;103280;-42
2021/03/28 13:00:35;;;;;;;20.70;7.35;;;;;;;10.83;48.02;99877.95;467856;1199;103163;-42
2021/03/28 13:10:41;;;;;;;12.27;6.00;;;;;;;10.50;47.29;99882.34;467181;1199;103213;-41
2021/03/28 13:20:48;;;;;;;14.10;6.05;;;;;;;10.49;47.34;99875.43;468135;1199;104700;-41
2021/03/28 13:30:52;;;;;;;11.40;4.00;;;;;;;10.20;46.48;99866.75;467987;1200;103549;-41
2021/03/28 13:41:00;;;;;;;24.30;8.45;;;;;;;10.21;46.11;99868.41;466714;1200;103291;-40
2021/03/28 13:51:16;;;;;;;10.95;6.30;;;;;;;10.02;46.61;99863.81;468232;1199;103267;-41
2021/03/28 14:01:21;;;;;;;8.55;3.80;;;;;;;9.81;45.84;99860.24;467410;1199;103551;-41
2021/03/28 14:11:26;;;;;;;10.10;4.20;;;;;;;9.92;44.57;99852.77;468180;1200;103581;-41
2021/03/28 14:21:35;;;;;;;19.10;4.47;;;;;;;9.89;44.57;99845.23;468273;1200;104816;-41
2021/03/28 14:31:40;;;;;;;10.10;4.57;;;;;;;10.39;43.38;99849.34;467875;1200;103239;-41
2021/03/28 14:41:46;;;;;;;10.50;5.85;;;;;;;10.22;44.54;99851.54;468102;1200;103239;-41
2021/03/28 14:51:58;;;;;;;12.73;6.43;;;;;;;10.11;44.43;99847.58;468128;1199;103175;-41
2021/03/28 15:02:02;;;;;;;17.37;7.60;;;;;;;9.91;44.29;99835.28;467857;1199;103219;-41
2021/03/28 15:12:06;;;;;;;8.55;5.25;;;;;;;9.61;44.05;99838.17;467680;1199;103255;-42
2021/03/28 15:22:14;;;;;;;12.40;6.00;;;;;;;9.58;44.15;99832.47;467660;1199;103265;-42
2021/03/28 15:32:42;;;;;;;71.67;12.40;;;;;;;9.22;44.32;99831.59;467957;1199;103216;-41
2021/03/28 15:42:49;;;;;;;63.23;24.23;;;;;;;8.98;45.06;99828.55;467204;1199;103226;-41
2021/03/28 15:53:24;;;;;;;30.77;10.30;;;;;;;9.07;45.55;99830.88;467812;1199;104676;-41
2021/03/28 16:03:40;;;;;;;14.67;7.03;;;;;;;8.95;45.67;99821.84;467644;1200;103520;-42
2021/03/28 16:14:17;;;;;;;14.20;6.50;;;;;;;9.03;46.38;99812.99;467076;1200;103386;-39
2021/03/28 16:24:21;;;;;;;10.80;5.50;;;;;;;8.92;46.41;99820.40;466838;1199;103235;-42
2021/03/28 16:34:34;;;;;;;59.50;31.30;;;;;;;8.60;46.40;99821.73;467414;1199;103214;-40
2021/03/28 16:44:45;;;;;;;55.40;28.20;;;;;;;8.40;47.01;99822.52;466984;1200;103171;-41
2021/03/28 16:54:51;;;;;;;118.60;69.53;;;;;;;8.13;47.21;99832.73;467991;1200;103252;-41
2021/03/28 17:04:57;;;;;;;34.00;19.87;;;;;;;7.78;47.57;99826.39;468136;1199;103192;-41
2021/03/28 17:15:06;;;;;;;66.70;24.13;;;;;;;7.52;48.15;99836.55;467805;1200;103632;-41
2021/03/28 17:25:29;;;;;;;56.65;21.30;;;;;;;7.23;48.55;99847.86;467832;1199;103258;-40
2021/03/28 17:35:33;;;;;;;69.43;25.37;;;;;;;6.92;48.79;99853.22;467358;1199;103229;-40
2021/03/28 17:45:46;;;;;;;28.90;13.30;;;;;;;6.61;49.18;99846.18;468315;1199;103504;-41
2021/03/28 17:55:54;;;;;;;28.77;12.60;;;;;;;6.32;49.39;99851.28;467865;1200;104342;-41
2021/03/28 18:05:58;;;;;;;64.00;26.00;;;;;;;6.02;50.04;99852.91;467546;1200;103634;-41
2021/03/28 18:16:05;;;;;;;64.30;28.90;;;;;;;5.66;50.43;99852.48;468590;1200;103616;-41
2021/03/28 18:26:39;;;;;;;104.25;52.25;;;;;;;5.28;50.75;99864.54;467070;1199;103277;-41
2021/03/28 18:47:15;;;;;;;170.90;78.57;;;;;;;4.63;52.04;99873.99;467808;1200;103207;-41
2021/03/28 19:07:54;;;;;;;149.75;69.85;;;;;;;4.34;52.84;99883.25;467787;1199;103827;-42
2021/03/28 19:18:01;;;;;;;163.17;74.13;;;;;;;4.25;53.43;99888.44;467414;1199;104687;-43
2021/03/28 19:28:19;;;;;;;134.30;63.30;;;;;;;4.15;53.91;99887.77;467813;1200;103676;-41
2021/03/28 19:38:27;;;;;;;135.90;60.50;;;;;;;4.13;54.09;99894.13;467276;1200;103276;-41
2021/03/28 19:48:35;;;;;;;139.50;60.17;;;;;;;4.01;54.33;99894.40;466792;1199;103222;-41
2021/03/28 19:58:39;;;;;;;116.73;51.57;;;;;;;3.89;54.83;99887.81;467836;1200;103558;-40
2021/03/28 20:08:44;;;;;;;110.30;44.53;;;;;;;3.79;54.80;99887.12;468628;1199;104677;-43
2021/03/28 20:29:12;;;;;;;111.95;48.85;;;;;;;3.53;55.15;99889.70;468885;1200;103265;-40
2021/03/28 20:39:21;;;;;;;120.97;52.10;;;;;;;3.41;55.44;99900.59;467144;1199;103225;-40
2021/03/28 20:49:27;;;;;;;135.90;53.60;;;;;;;3.34;56.23;99897.77;467662;1199;103272;-42
2021/03/28 20:59:33;;;;;;;159.73;63.67;;;;;;;3.21;56.04;99905.17;468169;1199;104611;-41
2021/03/28 21:09:38;;;;;;;187.35;75.75;;;;;;;3.12;56.30;99900.86;467795;1200;103612;-42
2021/03/28 21:19:44;;;;;;;164.90;69.00;;;;;;;3.00;56.77;99895.03;467983;1199;103306;-42
2021/03/28 21:40:16;;;;;;;165.70;63.27;;;;;;;2.78;57.42;99906.73;467158;1200;103225;-41
2021/03/28 21:50:23;;;;;;;160.53;60.67;;;;;;;2.76;57.41;99904.28;467575;1199;104693;-39
2021/03/28 22:00:32;;;;;;;140.50;56.70;;;;;;;2.73;57.38;99908.98;468432;1199;103149;-40
2021/03/28 22:10:42;;;;;;;159.53;60.58;;;;;;;2.68;57.59;99904.20;467574;1199;103640;-42
2021/03/28 22:20:46;;;;;;;129.27;52.27;;;;;;;2.63;57.99;99901.22;468657;1200;104870;-41
2021/03/28 22:30:50;;;;;;;108.03;45.93;;;;;;;2.65;58.27;99890.63;468457;1199;103562;-41
2021/03/28 22:40:55;;;;;;;94.57;43.20;;;;;;;2.62;58.19;99896.15;467525;1200;103594;-41
2021/03/28 22:51:02;;;;;;;105.40;41.95;;;;;;;2.66;58.49;99892.27;467415;1199;103545;-41
2021/03/28 23:01:09;;;;;;;105.50;43.70;;;;;;;2.66;58.68;99894.88;466854;1200;103325;-41
2021/03/28 23:11:14;;;;;;;105.23;41.00;;;;;;;2.72;58.77;99896.89;468015;1199;103258;-42
2021/03/28 23:21:19;;;;;;;92.30;37.60;;;;;;;2.72;58.58;99887.27;467698;1199;103232;-40
2021/03/28 23:31:23;;;;;;;109.20;41.40;;;;;;;2.75;58.61;99899.20;467747;1200;103603;-41
2021/03/28 23:41:28;;;;;;;93.75;38.05;;;;;;;2.81;58.93;99890.77;468199;1200;103236;-40
